createdAt,value
2023-04-29T00:00:18.259Z,99.90
2023-04-29T00:02:45.795Z,99.90
2023-04-29T00:05:13.662Z,99.90
2023-04-29T00:07:41.098Z,99.90
2023-04-29T00:10:08.594Z,99.90
2023-04-29T00:12:35.993Z,99.90
2023-04-29T00:15:03.538Z,99.90
2023-04-29T00:17:31.045Z,99.90
2023-04-29T00:19:58.341Z,99.90
2023-04-29T00:22:25.664Z,99.90
2023-04-29T00:24:53.253Z,99.90
2023-04-29T00:27:20.616Z,99.90
2023-04-29T00:29:47.843Z,99.90
2023-04-29T00:32:15.088Z,99.90
2023-04-29T00:34:42.700Z,99.90
2023-04-29T00:37:09.975Z,99.90
2023-04-29T00:39:37.614Z,99.90
2023-04-29T00:42:04.796Z,99.90
2023-04-29T00:44:31.914Z,99.90
2023-04-29T00:46:59.398Z,99.90
2023-04-29T00:49:27.821Z,99.90
2023-04-29T00:51:56.077Z,99.90
2023-04-29T00:54:23.574Z,99.90
2023-04-29T00:56:51.138Z,99.90
2023-04-29T00:59:18.728Z,99.90
2023-04-29T01:01:46.712Z,99.90
2023-04-29T01:04:14.705Z,99.90
2023-04-29T01:07:00.915Z,99.90
2023-04-29T01:09:37.056Z,99.90
2023-04-29T01:12:04.307Z,99.90
2023-04-29T01:14:33.096Z,99.90
2023-04-29T01:17:00.899Z,99.90
2023-04-29T01:19:38.516Z,99.90
2023-04-29T01:22:05.937Z,99.90
2023-04-29T01:24:33.561Z,99.90
2023-04-29T01:27:21.911Z,99.90
2023-04-29T01:29:49.312Z,99.90
2023-04-29T01:32:34.689Z,99.90
2023-04-29T01:35:11.448Z,99.90
2023-04-29T01:37:45.433Z,99.90
2023-04-29T01:40:16.578Z,99.90
2023-04-29T01:42:49.282Z,99.90
2023-04-29T01:45:17.453Z,99.90
2023-04-29T01:47:46.618Z,99.90
2023-04-29T01:50:13.995Z,99.90
2023-04-29T01:52:41.668Z,99.90
2023-04-29T01:55:09.592Z,99.90
2023-04-29T01:57:37.038Z,99.90
2023-04-29T02:00:04.974Z,99.90
2023-04-29T02:02:32.488Z,99.90
2023-04-29T02:05:00.017Z,99.90
2023-04-29T02:07:27.634Z,99.90
2023-04-29T02:09:55.127Z,99.90
2023-04-29T02:12:22.540Z,99.90
2023-04-29T02:14:53.162Z,99.90
2023-04-29T02:17:20.586Z,99.90
2023-04-29T02:19:47.947Z,99.90
2023-04-29T02:22:15.351Z,99.90
2023-04-29T02:24:42.784Z,99.90
2023-04-29T02:27:10.164Z,99.90
2023-04-29T02:29:37.551Z,99.90
2023-04-29T02:32:05.070Z,99.90
2023-04-29T02:34:32.414Z,99.90
2023-04-29T02:37:00.129Z,99.90
2023-04-29T02:39:27.689Z,99.90
2023-04-29T02:41:56.326Z,99.90
2023-04-29T02:44:23.568Z,99.90
2023-04-29T02:46:50.873Z,99.90
2023-04-29T02:49:18.140Z,99.90
2023-04-29T02:51:45.533Z,99.90
2023-04-29T02:54:12.830Z,99.90
2023-04-29T02:56:40.267Z,99.90
2023-04-29T02:59:07.616Z,99.90
2023-04-29T03:01:34.997Z,99.90
2023-04-29T03:04:02.990Z,99.90
2023-04-29T03:06:31.031Z,99.90
2023-04-29T03:08:58.446Z,99.90
2023-04-29T03:11:25.806Z,99.90
2023-04-29T03:13:53.086Z,99.90
2023-04-29T03:16:21.446Z,99.90
2023-04-29T03:18:48.898Z,99.90
2023-04-29T03:21:16.201Z,99.90
2023-04-29T03:23:44.838Z,99.90
2023-04-29T03:26:12.183Z,99.90
2023-04-29T03:28:39.622Z,99.90
2023-04-29T03:31:07.206Z,99.90
2023-04-29T03:33:34.540Z,99.90
2023-04-29T03:36:01.797Z,99.90
2023-04-29T03:38:29.044Z,99.90
2023-04-29T03:40:56.319Z,99.90
2023-04-29T03:43:23.574Z,99.90
2023-04-29T03:45:51.238Z,99.90
2023-04-29T03:48:20.065Z,99.90
2023-04-29T03:50:47.499Z,99.90
2023-04-29T03:53:15.008Z,99.90
2023-04-29T03:55:42.276Z,99.90
2023-04-29T03:58:09.681Z,99.90
2023-04-29T04:00:37.120Z,99.90
2023-04-29T04:03:05.819Z,99.90
2023-04-29T04:05:33.423Z,99.90
2023-04-29T04:08:00.890Z,99.90
2023-04-29T04:10:28.561Z,99.90
2023-04-29T04:12:56.496Z,99.90
2023-04-29T04:15:23.866Z,99.90
2023-04-29T04:17:52.534Z,99.90
2023-04-29T04:20:20.004Z,99.90
2023-04-29T04:22:47.306Z,99.90
2023-04-29T04:25:14.661Z,99.90
2023-04-29T04:27:42.013Z,99.90
2023-04-29T04:30:09.558Z,99.90
2023-04-29T04:32:36.897Z,99.90
2023-04-29T04:35:04.500Z,99.90
2023-04-29T04:37:31.995Z,99.90
2023-04-29T04:39:59.285Z,99.90
2023-04-29T04:42:26.812Z,99.90
2023-04-29T04:44:54.147Z,99.90
2023-04-29T04:47:21.467Z,99.90
2023-04-29T04:49:49.955Z,99.90
2023-04-29T04:52:19.783Z,99.90
2023-04-29T04:54:47.032Z,99.90
2023-04-29T04:57:14.325Z,99.90
2023-04-29T04:59:41.660Z,99.90
2023-04-29T05:02:10.035Z,99.90
2023-04-29T05:04:37.303Z,99.90
2023-04-29T05:07:04.904Z,99.90
2023-04-29T05:09:32.685Z,99.90
2023-04-29T05:11:59.961Z,99.90
2023-04-29T05:14:27.416Z,99.90
2023-04-29T05:16:58.698Z,99.90
2023-04-29T05:19:26.021Z,99.90
2023-04-29T05:21:53.302Z,99.90
2023-04-29T05:24:20.700Z,99.90
2023-04-29T05:26:50.073Z,99.90
2023-04-29T05:29:17.407Z,99.90
2023-04-29T05:31:44.687Z,99.90
2023-04-29T05:34:11.962Z,99.90
2023-04-29T05:36:39.269Z,99.90
2023-04-29T05:39:06.634Z,99.90
2023-04-29T05:41:33.877Z,99.90
2023-04-29T05:44:01.256Z,99.90
2023-04-29T05:46:28.588Z,99.90
2023-04-29T05:48:56.202Z,99.90
2023-04-29T05:51:23.468Z,99.90
2023-04-29T05:53:50.775Z,99.90
2023-04-29T05:56:19.174Z,99.90
2023-04-29T05:58:46.547Z,99.90
2023-04-29T06:01:13.880Z,99.90
2023-04-29T06:03:42.240Z,99.90
2023-04-29T06:06:10.570Z,99.90
2023-04-29T06:08:38.074Z,99.90
2023-04-29T06:11:06.106Z,99.90
2023-04-29T06:13:33.343Z,99.90
2023-04-29T06:16:01.743Z,99.90
2023-04-29T06:18:29.146Z,99.90
2023-04-29T06:20:56.391Z,99.90
2023-04-29T06:23:23.723Z,99.90
2023-04-29T06:25:52.817Z,99.90
2023-04-29T06:28:20.870Z,99.90
2023-04-29T06:30:48.146Z,99.90
2023-04-29T06:33:15.520Z,99.90
2023-04-29T06:35:42.989Z,99.90
2023-04-29T06:38:10.354Z,99.90
2023-04-29T06:40:37.633Z,99.90
2023-04-29T06:43:04.963Z,99.90
2023-04-29T06:45:32.335Z,99.90
2023-04-29T06:47:59.629Z,99.90
2023-04-29T06:50:27.119Z,99.90
2023-04-29T06:52:54.426Z,99.90
2023-04-29T06:55:21.847Z,99.90
2023-04-29T06:57:49.140Z,99.90
2023-04-29T07:00:16.546Z,99.90
2023-04-29T07:02:43.813Z,99.90
2023-04-29T07:05:11.299Z,99.90
2023-04-29T07:07:38.541Z,99.90
2023-04-29T07:10:06.014Z,99.90
2023-04-29T07:12:33.310Z,99.90
2023-04-29T07:15:00.653Z,99.90
2023-04-29T07:17:29.668Z,99.90
2023-04-29T07:19:56.999Z,99.90
2023-04-29T07:22:24.374Z,99.90
2023-04-29T07:24:55.403Z,99.90
2023-04-29T07:27:23.167Z,99.90
2023-04-29T07:29:50.439Z,99.90
2023-04-29T07:32:17.674Z,99.90
2023-04-29T07:34:44.926Z,99.90
2023-04-29T07:37:12.433Z,99.90
2023-04-29T07:39:39.794Z,99.90
2023-04-29T07:42:07.090Z,99.90
2023-04-29T07:44:34.395Z,99.90
2023-04-29T07:47:01.845Z,99.90
2023-04-29T07:49:29.093Z,99.90
2023-04-29T07:51:56.572Z,99.90
2023-04-29T07:54:23.869Z,99.90
2023-04-29T07:56:51.135Z,99.90
2023-04-29T07:59:18.382Z,99.90
2023-04-29T08:01:45.599Z,99.90
2023-04-29T08:04:13.618Z,99.90
2023-04-29T08:06:41.880Z,99.90
2023-04-29T08:09:09.155Z,99.90
2023-04-29T08:11:36.530Z,99.90
2023-04-29T08:14:03.790Z,99.90
2023-04-29T08:16:31.760Z,99.90
2023-04-29T08:18:59.052Z,99.90
2023-04-29T08:21:27.653Z,99.90
2023-04-29T08:23:55.699Z,99.90
2023-04-29T08:26:24.145Z,99.90
2023-04-29T08:28:51.494Z,99.90
2023-04-29T08:31:19.793Z,99.90
2023-04-29T08:33:47.424Z,99.90
2023-04-29T08:36:14.811Z,99.90
2023-04-29T08:38:42.077Z,99.90
2023-04-29T08:41:10.007Z,99.90
2023-04-29T08:43:37.671Z,99.90
2023-04-29T08:46:05.267Z,99.90
2023-04-29T08:48:32.910Z,99.90
2023-04-29T08:51:02.389Z,99.90
2023-04-29T08:53:29.833Z,99.90
2023-04-29T08:55:58.529Z,99.90
2023-04-29T08:58:27.874Z,99.90
2023-04-29T09:00:55.357Z,99.90
2023-04-29T09:03:25.906Z,99.90
2023-04-29T09:05:54.182Z,99.90
2023-04-29T09:08:22.572Z,99.90
2023-04-29T09:10:53.167Z,99.90
2023-04-29T09:13:24.652Z,99.90
2023-04-29T09:15:51.902Z,99.90
2023-04-29T09:18:37.873Z,99.90
2023-04-29T09:21:12.979Z,99.90
2023-04-29T09:23:40.361Z,99.90
2023-04-29T09:26:07.680Z,99.90
2023-04-29T09:28:34.963Z,99.90
2023-04-29T09:31:06.864Z,99.90
2023-04-29T09:34:00.254Z,99.90
2023-04-29T09:36:41.247Z,99.90
2023-04-29T09:39:12.490Z,99.90
2023-04-29T09:41:40.594Z,99.90
2023-04-29T09:44:08.400Z,99.90
2023-04-29T09:46:36.820Z,99.90
2023-04-29T09:49:07.267Z,99.90
2023-04-29T09:51:51.711Z,99.90
2023-04-29T09:54:22.962Z,99.90
2023-04-29T09:56:51.798Z,99.90
2023-04-29T09:59:19.658Z,99.90
2023-04-29T10:01:48.846Z,99.90
2023-04-29T10:04:16.651Z,99.90
2023-04-29T10:06:44.753Z,99.90
2023-04-29T10:09:16.283Z,99.90
2023-04-29T10:11:51.019Z,99.90
2023-04-29T10:14:19.698Z,99.90
2023-04-29T10:16:51.309Z,99.90
2023-04-29T10:19:20.278Z,99.90
2023-04-29T10:21:50.010Z,99.90
2023-04-29T10:24:17.807Z,99.90
2023-04-29T10:26:45.624Z,99.90
2023-04-29T10:29:14.322Z,99.90
2023-04-29T10:31:43.399Z,99.90
2023-04-29T10:34:11.531Z,99.90
2023-04-29T10:36:38.996Z,99.90
2023-04-29T10:39:09.636Z,99.90
2023-04-29T10:41:37.941Z,99.90
2023-04-29T10:44:05.239Z,99.90
2023-04-29T10:46:32.666Z,99.90
2023-04-29T10:49:03.862Z,99.90
2023-04-29T10:51:33.033Z,99.90
2023-04-29T10:54:06.556Z,99.90
2023-04-29T10:56:40.861Z,99.90
2023-04-29T10:59:14.928Z,99.90
2023-04-29T11:01:43.459Z,99.90
2023-04-29T11:04:11.560Z,99.90
2023-04-29T11:06:46.617Z,99.90
2023-04-29T11:09:16.061Z,99.90
2023-04-29T11:11:48.970Z,99.90
2023-04-29T11:14:21.136Z,99.90
2023-04-29T11:16:49.707Z,99.90
2023-04-29T11:19:17.679Z,99.90
2023-04-29T11:21:46.067Z,99.90
2023-04-29T11:24:15.657Z,99.90
2023-04-29T11:26:44.028Z,99.90
2023-04-29T11:29:11.276Z,99.90
2023-04-29T11:31:42.014Z,99.90
2023-04-29T11:34:09.331Z,99.90
2023-04-29T11:36:36.817Z,99.90
2023-04-29T11:39:04.335Z,99.90
2023-04-29T11:41:31.838Z,99.90
2023-04-29T11:43:59.958Z,99.90
2023-04-29T11:46:31.713Z,99.90
2023-04-29T11:49:02.133Z,99.90
2023-04-29T11:51:29.467Z,99.90
2023-04-29T11:53:57.933Z,99.90
2023-04-29T11:56:25.730Z,99.90
2023-04-29T11:58:56.899Z,99.90
2023-04-29T12:01:25.514Z,99.90
2023-04-29T12:03:57.464Z,99.90
2023-04-29T12:06:27.586Z,99.90
2023-04-29T12:08:54.920Z,99.90
2023-04-29T12:11:24.731Z,99.90
2023-04-29T12:13:52.300Z,99.90
2023-04-29T12:16:19.612Z,99.90
2023-04-29T12:18:46.966Z,99.90
2023-04-29T12:21:14.265Z,99.90
2023-04-29T12:23:41.569Z,99.90
2023-04-29T12:26:09.121Z,99.90
2023-04-29T12:28:37.718Z,99.90
2023-04-29T12:31:05.228Z,99.90
2023-04-29T12:33:32.559Z,99.90
2023-04-29T12:35:59.853Z,99.90
2023-04-29T12:38:28.109Z,99.90
2023-04-29T12:40:56.480Z,99.90
2023-04-29T12:43:30.200Z,99.90
2023-04-29T12:46:07.975Z,99.90
2023-04-29T12:48:39.131Z,99.90
2023-04-29T12:51:08.573Z,99.90
2023-04-29T12:53:35.960Z,99.90
2023-04-29T12:56:03.323Z,99.90
2023-04-29T12:58:31.489Z,99.90
2023-04-29T13:00:59.320Z,99.90
2023-04-29T13:03:27.035Z,99.90
2023-04-29T13:05:54.934Z,99.90
2023-04-29T13:08:23.083Z,99.90
2023-04-29T13:10:50.990Z,99.90
2023-04-29T13:13:18.336Z,99.90
2023-04-29T13:15:45.642Z,99.90
2023-04-29T13:18:12.987Z,99.90
2023-04-29T13:20:41.900Z,99.90
2023-04-29T13:23:09.737Z,99.90
2023-04-29T13:25:37.022Z,99.90
2023-04-29T13:28:05.546Z,99.80
2023-04-29T13:30:33.328Z,99.90
2023-04-29T13:33:09.194Z,99.90
2023-04-29T13:35:40.257Z,99.90
2023-04-29T13:38:08.249Z,99.90
2023-04-29T13:40:39.349Z,99.90
2023-04-29T13:43:09.899Z,99.60
2023-04-29T13:45:42.783Z,99.90
2023-04-29T13:48:32.437Z,99.30
2023-04-29T13:59:08.952Z,99.90
2023-04-29T14:01:55.317Z,99.20
2023-04-29T14:04:06.404Z,99.90
2023-04-29T14:06:34.214Z,99.80
2023-04-29T14:09:03.699Z,99.90
2023-04-29T14:11:31.831Z,99.90
2023-04-29T14:13:59.116Z,99.90
2023-04-29T14:16:26.443Z,99.10
2023-04-29T14:18:53.770Z,98.50
2023-04-29T14:21:22.732Z,99.00
2023-04-29T14:23:50.330Z,97.90
2023-04-29T14:26:27.889Z,97.50
2023-04-29T14:28:59.739Z,98.60
2023-04-29T14:31:28.451Z,99.50
2023-04-29T14:33:59.414Z,99.50
2023-04-29T14:36:28.158Z,98.60
2023-04-29T14:38:55.704Z,98.70
2023-04-29T14:41:22.993Z,99.10
2023-04-29T14:43:50.338Z,99.50
2023-04-29T14:46:17.700Z,98.60
2023-04-29T14:48:45.102Z,99.00
2023-04-29T14:51:12.433Z,99.20
2023-04-29T14:53:39.731Z,99.60
2023-04-29T14:56:08.043Z,99.70
2023-04-29T14:58:35.405Z,99.80
2023-04-29T15:01:02.707Z,99.90
2023-04-29T15:03:30.296Z,99.90
2023-04-29T15:05:58.863Z,99.90
2023-04-29T15:08:26.280Z,99.90
2023-04-29T15:10:53.585Z,99.90
2023-04-29T15:13:21.108Z,99.90
2023-04-29T15:15:51.999Z,99.90
2023-04-29T15:18:19.359Z,99.90
2023-04-29T15:20:46.771Z,99.90
2023-04-29T15:23:14.094Z,99.90
2023-04-29T15:25:41.380Z,99.90
2023-04-29T15:28:08.985Z,99.90
2023-04-29T15:30:36.284Z,99.90
2023-04-29T15:33:04.678Z,99.90
2023-04-29T15:35:32.035Z,99.90
2023-04-29T15:37:59.440Z,99.90
2023-04-29T15:40:26.797Z,99.90
2023-04-29T15:42:54.080Z,99.90
2023-04-29T15:45:21.366Z,99.90
2023-04-29T15:47:48.803Z,99.90
2023-04-29T15:50:16.226Z,99.90
2023-04-29T15:52:43.511Z,99.90
2023-04-29T15:55:11.949Z,99.90
2023-04-29T15:57:42.763Z,99.90
2023-04-29T16:00:10.343Z,99.90
2023-04-29T16:02:37.690Z,99.90
2023-04-29T16:05:05.168Z,99.90
2023-04-29T16:07:34.747Z,99.90
2023-04-29T16:10:02.708Z,99.90
2023-04-29T16:12:29.984Z,99.90
2023-04-29T16:14:57.262Z,99.90
2023-04-29T16:17:25.109Z,99.90
2023-04-29T16:19:52.573Z,99.90
2023-04-29T16:22:20.219Z,99.90
2023-04-29T16:24:49.321Z,99.90
2023-04-29T16:27:17.724Z,99.90
2023-04-29T16:29:45.120Z,99.90
2023-04-29T16:32:12.383Z,99.90
2023-04-29T16:34:39.627Z,99.90
2023-04-29T16:37:12.300Z,99.90
2023-04-29T16:39:40.182Z,99.90
2023-04-29T16:42:07.671Z,99.90
2023-04-29T16:44:34.978Z,99.90
2023-04-29T16:47:03.118Z,99.90
2023-04-29T16:49:30.700Z,99.90
2023-04-29T16:51:57.999Z,99.90
2023-04-29T16:54:25.581Z,99.90
2023-04-29T16:56:52.884Z,99.90
2023-04-29T16:59:20.245Z,99.90
2023-04-29T17:01:47.656Z,99.90
2023-04-29T17:04:15.056Z,99.90
2023-04-29T17:06:43.013Z,99.90
2023-04-29T17:09:10.425Z,99.90
2023-04-29T17:11:37.753Z,99.90
2023-04-29T17:14:05.055Z,99.90
2023-04-29T17:16:33.248Z,99.90
2023-04-29T17:19:00.569Z,99.90
2023-04-29T17:21:29.316Z,99.90
2023-04-29T17:23:56.629Z,99.90
2023-04-29T17:26:23.881Z,99.90
2023-04-29T17:28:51.154Z,99.90
2023-04-29T17:31:20.759Z,99.90
2023-04-29T17:33:55.370Z,99.90
2023-04-29T17:36:22.746Z,99.90
2023-04-29T17:38:50.064Z,99.90
2023-04-29T17:41:17.343Z,99.90
2023-04-29T17:43:44.676Z,99.90
2023-04-29T17:46:12.079Z,99.90
2023-04-29T17:48:39.405Z,99.90
2023-04-29T17:51:06.685Z,99.90
2023-04-29T17:53:34.042Z,99.90
2023-04-29T17:56:01.371Z,99.90
2023-04-29T17:58:29.160Z,99.90
2023-04-29T18:00:56.771Z,99.90
2023-04-29T18:03:27.276Z,99.90
2023-04-29T18:05:54.900Z,99.90
2023-04-29T18:08:22.252Z,99.90
2023-04-29T18:10:49.530Z,99.90
2023-04-29T18:13:16.857Z,99.90
2023-04-29T18:15:44.229Z,99.90
2023-04-29T18:18:11.563Z,99.90
2023-04-29T18:20:42.514Z,99.90
2023-04-29T18:23:09.890Z,99.90
2023-04-29T18:25:37.993Z,99.90
2023-04-29T18:28:23.131Z,99.90
2023-04-29T18:30:52.233Z,99.90
2023-04-29T18:33:19.707Z,99.90
2023-04-29T18:35:47.210Z,99.90
2023-04-29T18:38:17.288Z,99.90
2023-04-29T18:40:44.873Z,99.90
2023-04-29T18:43:15.324Z,99.90
2023-04-29T18:45:42.665Z,99.90
2023-04-29T18:48:12.302Z,99.90
2023-04-29T18:50:42.588Z,99.90
2023-04-29T18:53:10.018Z,99.90
2023-04-29T18:55:37.365Z,99.90
2023-04-29T18:58:04.867Z,99.90
2023-04-29T19:00:32.302Z,99.90
2023-04-29T19:03:00.463Z,99.90
2023-04-29T19:05:27.870Z,99.90
2023-04-29T19:07:55.320Z,99.90
2023-04-29T19:10:22.685Z,99.90
2023-04-29T19:12:50.537Z,99.90
2023-04-29T19:15:18.022Z,99.90
2023-04-29T19:17:45.563Z,99.90
2023-04-29T19:20:13.046Z,99.90
2023-04-29T19:22:40.758Z,99.90
2023-04-29T19:25:10.429Z,99.90
2023-04-29T19:27:39.995Z,99.90
2023-04-29T19:30:07.579Z,99.90
2023-04-29T19:32:34.940Z,99.90
2023-04-29T19:35:02.580Z,99.90
2023-04-29T19:37:30.081Z,99.90
2023-04-29T19:39:57.402Z,99.90
2023-04-29T19:42:24.891Z,99.90
2023-04-29T19:44:52.272Z,99.90
2023-04-29T19:47:19.631Z,99.90
2023-04-29T19:49:47.299Z,99.90
2023-04-29T19:52:14.552Z,99.90
2023-04-29T19:54:41.890Z,99.90
2023-04-29T19:57:09.163Z,99.90
2023-04-29T19:59:36.421Z,99.90
2023-04-29T20:02:03.774Z,99.90
2023-04-29T20:04:31.224Z,99.90
2023-04-29T20:06:58.503Z,99.90
2023-04-29T20:09:26.577Z,99.90
2023-04-29T20:11:53.948Z,99.90
2023-04-29T20:14:21.565Z,99.90
2023-04-29T20:16:48.918Z,99.90
2023-04-29T20:19:16.455Z,99.90
2023-04-29T20:21:44.004Z,99.90
2023-04-29T20:24:11.354Z,99.90
2023-04-29T20:26:38.661Z,99.90
2023-04-29T20:29:06.400Z,99.90
2023-04-29T20:31:33.904Z,99.90
2023-04-29T20:34:01.281Z,99.90
2023-04-29T20:36:28.668Z,99.90
2023-04-29T20:38:56.020Z,99.90
2023-04-29T20:41:23.439Z,99.90
2023-04-29T20:43:50.938Z,99.90
2023-04-29T20:46:18.233Z,99.90
2023-04-29T20:48:46.150Z,99.90
2023-04-29T20:51:13.633Z,99.90
2023-04-29T20:53:41.027Z,99.90
2023-04-29T20:56:10.526Z,99.90
2023-04-29T20:58:37.867Z,99.90
2023-04-29T21:01:05.307Z,99.90
2023-04-29T21:03:32.758Z,99.90
2023-04-29T21:06:00.119Z,99.90
2023-04-29T21:08:27.538Z,99.90
2023-04-29T21:10:54.854Z,99.90
2023-04-29T21:13:22.215Z,99.90
2023-04-29T21:15:49.612Z,99.90
2023-04-29T21:18:17.086Z,99.90
2023-04-29T21:20:44.502Z,99.90
2023-04-29T21:23:11.791Z,99.90
2023-04-29T21:25:39.102Z,99.90
2023-04-29T21:28:06.400Z,99.90
2023-04-29T21:30:33.641Z,99.90
2023-04-29T21:33:01.013Z,99.90
2023-04-29T21:35:28.347Z,99.90
2023-04-29T21:37:56.283Z,99.90
2023-04-29T21:40:26.435Z,99.90
2023-04-29T21:42:55.369Z,99.90
2023-04-29T21:45:23.123Z,99.90
2023-04-29T21:47:50.692Z,99.90
2023-04-29T21:50:18.032Z,99.90
2023-04-29T21:52:45.347Z,99.90
2023-04-29T21:55:12.864Z,99.90
2023-04-29T21:57:43.995Z,99.90
2023-04-29T22:00:19.911Z,99.90
2023-04-29T22:02:47.435Z,99.90
2023-04-29T22:05:14.978Z,99.90
2023-04-29T22:07:42.855Z,99.90
2023-04-29T22:10:10.594Z,99.90
2023-04-29T22:12:37.905Z,99.90
2023-04-29T22:15:09.139Z,99.90
2023-04-29T22:17:41.465Z,99.90
2023-04-29T22:20:11.269Z,99.90
2023-04-29T22:22:39.169Z,99.90
2023-04-29T22:25:06.920Z,99.90
2023-04-29T22:27:34.277Z,99.90
2023-04-29T22:30:01.592Z,99.90
2023-04-29T22:32:29.006Z,99.90
2023-04-29T22:35:00.504Z,99.90
2023-04-29T22:37:28.252Z,99.90
2023-04-29T22:39:56.431Z,99.90
2023-04-29T22:42:24.146Z,99.90
2023-04-29T22:44:51.497Z,99.90
2023-04-29T22:47:18.843Z,99.90
2023-04-29T22:49:46.572Z,99.90
2023-04-29T22:52:14.011Z,99.90
2023-04-29T22:54:41.251Z,99.90
2023-04-29T22:57:08.607Z,99.90
2023-04-29T22:59:35.851Z,99.90
2023-04-29T23:02:03.152Z,99.90
2023-04-29T23:04:32.386Z,99.90
2023-04-29T23:06:59.790Z,99.90
2023-04-29T23:09:27.187Z,99.90
2023-04-29T23:11:54.408Z,99.90
2023-04-29T23:14:21.746Z,99.90
2023-04-29T23:16:49.179Z,99.90
2023-04-29T23:19:16.441Z,99.90
2023-04-29T23:21:43.718Z,99.90
2023-04-29T23:24:11.022Z,99.90
2023-04-29T23:26:38.322Z,99.90
2023-04-29T23:29:06.170Z,99.90
2023-04-29T23:31:33.626Z,99.90
2023-04-29T23:34:01.348Z,99.90
2023-04-29T23:36:28.730Z,99.90
2023-04-29T23:38:56.041Z,99.90
2023-04-29T23:41:23.316Z,99.90
2023-04-29T23:43:50.664Z,99.90
2023-04-29T23:46:18.085Z,99.90
2023-04-29T23:48:45.423Z,99.90
2023-04-29T23:51:12.692Z,99.90
2023-04-29T23:53:40.441Z,99.90
2023-04-29T23:56:07.942Z,99.90
2023-04-29T23:58:35.260Z,99.90
